createdAt,value
2019-02-16T00:00:01.493Z,5.1
2019-02-16T00:05:01.253Z,5.1
2019-02-16T00:10:02.113Z,5.2
2019-02-16T00:15:01.279Z,5.2
2019-02-16T00:20:01.809Z,5.1
2019-02-16T00:25:01.632Z,5.2
2019-02-16T00:30:01.526Z,5.2
2019-02-16T00:35:01.647Z,5.1
2019-02-16T00:40:01.536Z,5.1
2019-02-16T00:45:02.163Z,4.9
2019-02-16T00:50:01.941Z,4.9
2019-02-16T00:55:01.865Z,4.8
2019-02-16T01:00:01.622Z,4.7
2019-02-16T01:05:01.565Z,4.6
2019-02-16T01:10:01.878Z,4.6
2019-02-16T01:15:01.443Z,4.4
2019-02-16T01:20:02.143Z,4.4
2019-02-16T01:25:01.872Z,4.3
2019-02-16T01:30:02.151Z,4.3
2019-02-16T01:35:01.800Z,4.2
2019-02-16T01:40:01.573Z,4.1
2019-02-16T01:45:01.357Z,4
2019-02-16T01:50:02.503Z,4
2019-02-16T01:55:01.913Z,3.9
2019-02-16T02:00:02.039Z,3.9
2019-02-16T02:05:02.013Z,3.7
2019-02-16T02:10:01.904Z,3.6
2019-02-16T02:15:01.453Z,3.5
2019-02-16T02:20:01.292Z,3.5
2019-02-16T02:25:01.463Z,3.5
2019-02-16T02:30:02.100Z,3.5
2019-02-16T02:35:01.742Z,3.5
2019-02-16T02:40:01.630Z,3.5
2019-02-16T02:45:01.723Z,3.4
2019-02-16T02:50:01.354Z,3.4
2019-02-16T02:55:02.349Z,3.3
2019-02-16T03:00:01.221Z,3.2
2019-02-16T03:05:02.126Z,3.3
2019-02-16T03:10:01.487Z,3.3
2019-02-16T03:15:01.793Z,3.3
2019-02-16T03:20:01.416Z,3.4
2019-02-16T03:25:01.527Z,3.4
2019-02-16T03:30:01.965Z,3.4
2019-02-16T03:35:01.177Z,3.4
2019-02-16T03:40:02.026Z,3.4
2019-02-16T03:45:02.153Z,3.4
2019-02-16T03:50:01.840Z,3.4
2019-02-16T03:55:01.501Z,3.3
2019-02-16T04:00:01.534Z,3.2
2019-02-16T04:05:01.458Z,3.2
2019-02-16T04:10:02.009Z,3.1
2019-02-16T04:15:01.695Z,3.1
2019-02-16T04:20:01.708Z,3.1
2019-02-16T04:25:01.288Z,3
2019-02-16T04:30:01.340Z,3
2019-02-16T04:35:01.733Z,3
2019-02-16T04:40:01.752Z,3
2019-02-16T04:45:02.154Z,2.9
2019-02-16T04:50:01.904Z,2.9
2019-02-16T04:55:01.820Z,2.9
2019-02-16T05:00:02.140Z,2.8
2019-02-16T05:05:01.147Z,2.8
2019-02-16T05:10:01.847Z,2.8
2019-02-16T05:15:01.396Z,2.8
2019-02-16T05:20:01.741Z,2.7
2019-02-16T05:25:01.770Z,2.6
2019-02-16T05:30:02.444Z,2.7
2019-02-16T05:35:01.660Z,2.8
2019-02-16T05:40:02.142Z,2.9
2019-02-16T05:45:01.911Z,2.9
2019-02-16T05:50:01.543Z,2.9
2019-02-16T05:55:02.351Z,2.9
2019-02-16T06:00:02.124Z,2.9
2019-02-16T06:05:01.222Z,2.8
2019-02-16T06:10:02.341Z,2.9
2019-02-16T06:15:02.139Z,2.9
2019-02-16T06:20:01.841Z,2.8
2019-02-16T06:25:01.686Z,2.7
2019-02-16T06:30:02.148Z,2.7
2019-02-16T06:35:01.642Z,2.7
2019-02-16T06:40:02.121Z,2.7
2019-02-16T06:45:01.429Z,2.8
2019-02-16T06:50:01.563Z,2.8
2019-02-16T06:55:01.565Z,2.8
2019-02-16T07:00:01.220Z,2.7
2019-02-16T07:05:01.610Z,2.7
2019-02-16T07:10:01.970Z,2.7
2019-02-16T07:15:01.917Z,2.7
2019-02-16T07:20:01.865Z,2.7
2019-02-16T07:25:01.427Z,2.7
2019-02-16T07:30:01.253Z,2.8
2019-02-16T07:35:02.154Z,3.1
2019-02-16T07:40:01.396Z,3.3
2019-02-16T07:45:01.699Z,3.5
2019-02-16T07:50:02.387Z,3.8
2019-02-16T07:55:01.285Z,4.2
2019-02-16T08:00:02.021Z,4.6
2019-02-16T08:05:01.996Z,5.1
2019-02-16T08:10:01.823Z,5.8
2019-02-16T08:15:02.528Z,6.1
2019-02-16T08:20:01.931Z,6.5
2019-02-16T08:25:01.949Z,6.8
2019-02-16T08:30:01.264Z,7.2
2019-02-16T08:35:02.116Z,7.5
2019-02-16T08:40:01.830Z,7.8
2019-02-16T08:45:01.726Z,8.1
2019-02-16T08:50:01.585Z,8.5
2019-02-16T08:55:01.746Z,8.8
2019-02-16T09:00:01.548Z,9.1
2019-02-16T09:05:01.772Z,9.4
2019-02-16T09:10:02.032Z,9.6
2019-02-16T09:15:02.163Z,9.8
2019-02-16T09:20:01.580Z,10.1
2019-02-16T09:25:01.218Z,10.4
2019-02-16T09:30:01.597Z,10.4
2019-02-16T09:35:01.927Z,10.5
2019-02-16T09:40:01.650Z,10.7
2019-02-16T09:45:01.953Z,10.8
2019-02-16T09:50:02.355Z,11
2019-02-16T09:55:01.322Z,11.1
2019-02-16T10:00:01.457Z,11.4
2019-02-16T10:05:01.642Z,11.6
2019-02-16T10:10:01.462Z,11.9
2019-02-16T10:15:02.005Z,12.2
2019-02-16T10:20:01.720Z,12.2
2019-02-16T10:25:01.454Z,12.2
2019-02-16T10:30:01.492Z,12.4
2019-02-16T10:35:01.502Z,12.4
2019-02-16T10:40:01.392Z,12.5
2019-02-16T10:45:01.502Z,12.7
2019-02-16T10:50:01.927Z,12.9
2019-02-16T10:55:02.206Z,13.2
2019-02-16T11:00:02.088Z,13.4
2019-02-16T11:05:01.392Z,13.5
2019-02-16T11:10:01.385Z,13.6
2019-02-16T11:15:01.364Z,13.7
2019-02-16T11:20:01.258Z,13.8
2019-02-16T11:25:02.157Z,14
2019-02-16T11:30:01.711Z,14.1
2019-02-16T11:35:01.575Z,14.1
2019-02-16T11:40:02.006Z,14.2
2019-02-16T11:45:01.574Z,14.2
2019-02-16T11:50:01.773Z,14.3
2019-02-16T11:55:01.877Z,14.5
2019-02-16T12:00:02.258Z,14.5
2019-02-16T12:05:01.425Z,14.7
2019-02-16T12:10:02.374Z,14.8
2019-02-16T12:15:02.036Z,14.8
2019-02-16T12:20:01.535Z,14.7
2019-02-16T12:25:05.598Z,14.7
2019-02-16T12:30:02.262Z,14.8
2019-02-16T12:35:02.041Z,14.9
2019-02-16T12:40:02.069Z,15.1
2019-02-16T12:45:01.180Z,15.1
2019-02-16T12:50:02.014Z,15
2019-02-16T12:55:01.755Z,15.3
2019-02-16T13:00:01.380Z,15.2
2019-02-16T13:05:01.571Z,15.2
2019-02-16T13:10:02.122Z,15
2019-02-16T13:15:01.448Z,15
2019-02-16T13:20:01.451Z,15.1
2019-02-16T13:25:01.883Z,14.8
2019-02-16T13:30:01.422Z,15
2019-02-16T13:35:01.759Z,14.8
2019-02-16T13:40:01.601Z,14.9
2019-02-16T13:45:01.276Z,15
2019-02-16T13:50:01.692Z,14.8
2019-02-16T13:55:01.311Z,14.7
2019-02-16T14:00:01.842Z,14.6
2019-02-16T14:05:02.346Z,14.7
2019-02-16T14:10:01.899Z,14.8
2019-02-16T14:15:01.353Z,14.8
2019-02-16T14:20:02.390Z,14.4
2019-02-16T14:25:02.549Z,14.4
2019-02-16T14:30:02.524Z,14.3
2019-02-16T14:35:01.853Z,14.2
2019-02-16T14:40:02.038Z,14.2
2019-02-16T14:45:01.206Z,14.2
2019-02-16T14:50:01.876Z,14
2019-02-16T14:55:02.213Z,14
2019-02-16T15:00:01.440Z,14
2019-02-16T15:05:01.576Z,14
2019-02-16T15:10:02.293Z,13.9
2019-02-16T15:15:01.643Z,13.8
2019-02-16T15:20:02.103Z,13.6
2019-02-16T15:25:01.782Z,13.5
2019-02-16T15:30:02.468Z,13.3
2019-02-16T15:35:02.117Z,13.1
2019-02-16T15:40:01.220Z,13
2019-02-16T15:45:01.399Z,12.8
2019-02-16T15:50:02.038Z,12.6
2019-02-16T15:55:02.063Z,12.5
2019-02-16T16:00:01.528Z,12.4
2019-02-16T16:05:01.616Z,12.2
2019-02-16T16:10:01.715Z,12.1
2019-02-16T16:15:01.709Z,12
2019-02-16T16:20:02.195Z,11.8
2019-02-16T16:25:01.932Z,11.7
2019-02-16T16:30:01.361Z,11.6
2019-02-16T16:35:02.499Z,11.5
2019-02-16T16:40:01.299Z,11.4
2019-02-16T16:45:01.626Z,11.3
2019-02-16T16:50:01.903Z,11.2
2019-02-16T16:55:01.796Z,11
2019-02-16T17:00:02.006Z,10.9
2019-02-16T17:05:01.929Z,10.8
2019-02-16T17:10:02.285Z,10.7
2019-02-16T17:15:01.454Z,10.6
2019-02-16T17:20:01.492Z,10.5
2019-02-16T17:25:02.517Z,10.4
2019-02-16T17:30:01.937Z,10.4
2019-02-16T17:35:01.506Z,10.3
2019-02-16T17:40:01.795Z,10.3
2019-02-16T17:45:02.241Z,10.3
2019-02-16T17:50:02.141Z,10.2
2019-02-16T17:55:02.004Z,10.2
2019-02-16T18:00:02.012Z,10.1
2019-02-16T18:05:02.243Z,10
2019-02-16T18:10:01.483Z,9.9
2019-02-16T18:15:01.659Z,9.8
2019-02-16T18:20:01.874Z,9.8
2019-02-16T18:25:01.460Z,9.8
2019-02-16T18:30:01.676Z,9.7
2019-02-16T18:35:01.918Z,9.7
2019-02-16T18:40:02.157Z,9.8
2019-02-16T18:45:01.192Z,9.8
2019-02-16T18:50:01.965Z,9.9
2019-02-16T18:55:10.428Z,9.9
2019-02-16T19:00:02.889Z,9.9
2019-02-16T19:05:01.814Z,10
2019-02-16T19:10:02.084Z,10
2019-02-16T19:15:01.739Z,10
2019-02-16T19:20:01.954Z,10
2019-02-16T19:25:02.181Z,10
2019-02-16T19:30:01.512Z,9.9
2019-02-16T19:35:02.353Z,10
2019-02-16T19:40:02.105Z,9.8
2019-02-16T19:45:01.692Z,9.8
2019-02-16T19:50:02.508Z,9.7
2019-02-16T19:55:01.955Z,9.6
2019-02-16T20:00:02.203Z,9.4
2019-02-16T20:05:01.777Z,9.3
2019-02-16T20:10:02.126Z,9.2
2019-02-16T20:15:01.731Z,9.1
2019-02-16T20:20:01.711Z,9
2019-02-16T20:25:01.471Z,8.9
2019-02-16T20:30:02.410Z,8.8
2019-02-16T20:35:01.166Z,8.7
2019-02-16T20:40:01.916Z,8.6
2019-02-16T20:45:02.629Z,8.6
2019-02-16T20:50:01.997Z,8.6
2019-02-16T20:55:01.536Z,8.6
2019-02-16T21:00:01.464Z,8.6
2019-02-16T21:05:02.117Z,8.6
2019-02-16T21:10:01.491Z,8.7
2019-02-16T21:15:01.937Z,8.9
2019-02-16T21:20:02.008Z,9
2019-02-16T21:25:03.326Z,9.1
2019-02-16T21:30:02.152Z,9.2
2019-02-16T21:35:01.443Z,9.4
2019-02-16T21:40:01.977Z,9.5
2019-02-16T21:45:01.221Z,9.8
2019-02-16T21:50:02.059Z,9.8
2019-02-16T21:55:01.933Z,9.9
2019-02-16T22:00:01.605Z,10
2019-02-16T22:05:01.659Z,10.1
2019-02-16T22:10:01.938Z,10.1
2019-02-16T22:15:02.647Z,10.2
2019-02-16T22:20:02.150Z,10.2
2019-02-16T22:25:02.315Z,10.3
2019-02-16T22:30:02.153Z,10.3
2019-02-16T22:35:01.939Z,10.4
2019-02-16T22:40:01.917Z,10.4
2019-02-16T22:45:01.399Z,10.4
2019-02-16T22:50:02.328Z,10.4
2019-02-16T22:55:02.094Z,10.4
2019-02-16T23:00:01.903Z,10.4
2019-02-16T23:05:01.678Z,10.4
2019-02-16T23:10:01.566Z,10.4
2019-02-16T23:15:02.513Z,10.4
2019-02-16T23:20:01.536Z,10.4
2019-02-16T23:25:01.669Z,10.4
2019-02-16T23:30:02.022Z,10.4
2019-02-16T23:35:01.943Z,10.4
2019-02-16T23:40:01.633Z,10.4
2019-02-16T23:45:01.726Z,10.5
2019-02-16T23:50:01.384Z,10.5
2019-02-16T23:55:01.985Z,10.6
